createdAt,value
2022-08-08T00:00:55.847Z,102248.91
2022-08-08T00:03:13.221Z,102251.09
2022-08-08T00:06:35.337Z,102238.00
2022-08-08T00:09:27.603Z,102232.63
2022-08-08T00:12:29.608Z,102226.22
2022-08-08T00:15:24.165Z,102248.53
2022-08-08T00:18:13.288Z,102251.25
2022-08-08T00:21:01.457Z,102226.41
2022-08-08T00:23:54.502Z,102244.41
2022-08-08T00:26:46.165Z,102247.44
2022-08-08T00:29:46.462Z,102246.06
2022-08-08T00:32:44.874Z,102228.81
2022-08-08T00:35:34.389Z,102248.94
2022-08-08T00:38:55.805Z,102237.81
2022-08-08T00:42:08.889Z,102232.88
2022-08-08T00:45:21.412Z,102229.13
2022-08-08T00:48:58.955Z,102240.00
2022-08-08T00:51:46.395Z,102232.66
2022-08-08T00:54:56.084Z,102238.63
2022-08-08T00:58:12.440Z,102240.22
2022-08-08T01:01:15.863Z,102237.00
2022-08-08T01:04:48.454Z,102237.22
2022-08-08T01:07:54.827Z,102246.25
2022-08-08T01:11:24.646Z,102245.31
2022-08-08T01:14:54.778Z,102202.19
2022-08-08T01:17:53.246Z,102250.97
2022-08-08T01:22:03.847Z,102237.97
2022-08-08T01:24:43.499Z,102240.41
2022-08-08T01:27:47.445Z,102245.69
2022-08-08T01:30:57.102Z,102244.09
2022-08-08T01:34:04.996Z,102228.53
2022-08-08T01:37:57.921Z,102240.56
2022-08-08T01:40:35.970Z,102223.81
2022-08-08T01:43:38.528Z,102235.44
2022-08-08T01:46:40.309Z,102209.34
2022-08-08T01:49:56.915Z,102217.19
2022-08-08T01:54:19.858Z,102241.84
2022-08-08T01:56:28.236Z,102236.75
2022-08-08T02:00:01.803Z,102196.34
2022-08-08T02:02:59.211Z,102223.59
2022-08-08T02:05:59.179Z,102245.72
2022-08-08T02:08:47.162Z,102234.72
2022-08-08T02:11:59.074Z,102240.25
2022-08-08T02:15:11.155Z,102237.44
2022-08-08T02:18:11.490Z,102233.19
2022-08-08T02:21:26.100Z,102215.75
2022-08-08T02:24:46.342Z,102232.97
2022-08-08T02:27:47.785Z,102231.47
2022-08-08T02:31:58.463Z,102239.66
2022-08-08T02:34:39.564Z,102234.38
2022-08-08T02:37:58.316Z,102230.69
2022-08-08T02:40:45.188Z,102211.34
2022-08-08T02:44:38.730Z,102227.38
2022-08-08T02:47:32.798Z,102225.88
2022-08-08T02:50:47.317Z,102226.81
2022-08-08T02:54:14.707Z,102203.63
2022-08-08T02:57:20.627Z,102182.22
2022-08-08T03:00:37.028Z,102224.06
2022-08-08T03:05:05.253Z,102221.19
2022-08-08T03:07:23.509Z,102206.72
2022-08-08T03:10:44.337Z,102227.19
2022-08-08T03:15:58.357Z,102228.38
2022-08-08T03:16:59.782Z,102220.66
2022-08-08T03:20:08.174Z,102234.59
2022-08-08T03:22:57.261Z,102225.94
2022-08-08T03:25:46.784Z,102236.81
2022-08-08T03:28:51.119Z,102237.47
2022-08-08T03:32:06.361Z,102231.09
2022-08-08T03:34:52.406Z,102236.94
2022-08-08T03:37:59.629Z,102232.03
2022-08-08T03:40:52.010Z,102230.75
2022-08-08T03:43:38.581Z,102239.31
2022-08-08T03:46:25.533Z,102240.16
2022-08-08T03:49:58.846Z,102253.00
2022-08-08T03:52:26.772Z,102246.56
2022-08-08T03:55:20.014Z,102244.66
2022-08-08T03:58:34.654Z,102239.16
2022-08-08T04:01:24.330Z,102247.75
2022-08-08T04:04:12.188Z,102240.16
2022-08-08T04:07:01.634Z,102256.72
2022-08-08T04:10:00.418Z,102237.97
2022-08-08T04:12:50.701Z,102258.69
2022-08-08T04:15:38.691Z,102232.19
2022-08-08T04:18:24.215Z,102234.16
2022-08-08T04:21:11.044Z,102265.97
2022-08-08T04:24:11.747Z,102262.06
2022-08-08T04:27:03.482Z,102242.00
2022-08-08T04:30:18.653Z,102274.66
2022-08-08T04:33:01.207Z,102269.53
2022-08-08T04:35:51.090Z,102269.97
2022-08-08T04:38:36.799Z,102279.09
2022-08-08T04:41:22.081Z,102281.06
2022-08-08T04:44:07.441Z,102285.53
2022-08-08T04:46:52.681Z,102286.63
2022-08-08T04:50:00.839Z,102267.25
2022-08-08T04:52:42.828Z,102293.91
2022-08-08T04:55:47.403Z,102297.69
2022-08-08T04:58:40.375Z,102298.19
2022-08-08T05:01:26.509Z,102282.13
2022-08-08T05:04:20.839Z,102305.75
2022-08-08T05:07:06.608Z,102302.50
2022-08-08T05:09:52.023Z,102312.03
2022-08-08T05:12:53.549Z,102294.50
2022-08-08T05:16:53.005Z,102312.25
2022-08-08T05:18:50.062Z,102311.34
2022-08-08T05:21:43.473Z,102307.69
2022-08-08T05:24:40.395Z,102312.19
2022-08-08T05:27:25.538Z,102304.28
2022-08-08T05:30:11.820Z,102316.81
2022-08-08T05:32:57.417Z,102319.75
2022-08-08T05:35:43.864Z,102310.47
2022-08-08T05:38:31.534Z,102302.56
2022-08-08T05:41:23.196Z,102328.25
2022-08-08T05:44:21.749Z,102317.00
2022-08-08T05:47:21.169Z,102334.38
2022-08-08T05:50:07.233Z,102329.81
2022-08-08T05:52:52.718Z,102326.25
2022-08-08T05:56:07.553Z,102335.69
2022-08-08T05:59:04.219Z,102334.09
2022-08-08T06:01:58.060Z,102340.75
2022-08-08T06:04:54.640Z,102317.13
2022-08-08T06:07:43.812Z,102305.44
2022-08-08T06:10:33.577Z,102335.50
2022-08-08T06:13:22.578Z,102347.78
2022-08-08T06:16:12.038Z,102339.72
2022-08-08T06:19:00.886Z,102340.97
2022-08-08T06:21:56.955Z,102348.91
2022-08-08T06:24:47.042Z,102353.47
2022-08-08T06:27:43.719Z,102329.72
2022-08-08T06:30:35.248Z,102348.78
2022-08-08T06:33:36.942Z,102351.72
2022-08-08T06:36:53.192Z,102363.94
2022-08-08T06:39:56.424Z,102344.31
2022-08-08T06:42:55.897Z,102358.47
2022-08-08T06:45:41.726Z,102365.72
2022-08-08T06:48:27.309Z,102365.13
2022-08-08T06:51:14.338Z,102365.41
2022-08-08T06:54:01.544Z,102354.91
2022-08-08T06:56:51.509Z,102363.00
2022-08-08T07:00:09.906Z,102360.59
2022-08-08T07:02:51.344Z,102356.75
2022-08-08T07:05:41.760Z,102340.41
2022-08-08T07:08:33.775Z,102318.16
2022-08-08T07:11:22.669Z,102364.03
2022-08-08T07:14:14.104Z,102357.31
2022-08-08T07:17:14.228Z,102371.19
2022-08-08T07:20:11.222Z,102373.44
2022-08-08T07:23:16.334Z,102379.66
2022-08-08T07:26:09.254Z,102358.41
2022-08-08T07:28:56.381Z,102367.19
2022-08-08T07:31:44.072Z,102389.13
2022-08-08T07:34:35.237Z,102366.63
2022-08-08T07:37:26.086Z,102377.19
2022-08-08T07:40:33.041Z,102404.66
2022-08-08T07:43:32.292Z,102383.91
2022-08-08T07:46:30.634Z,102399.94
2022-08-08T07:49:16.279Z,102403.44
2022-08-08T07:52:03.186Z,102405.47
2022-08-08T07:54:58.591Z,102395.25
2022-08-08T07:57:48.411Z,102402.16
2022-08-08T08:00:41.087Z,102401.69
2022-08-08T08:03:43.638Z,102398.72
2022-08-08T08:06:31.669Z,102394.28
2022-08-08T08:09:26.360Z,102389.09
2022-08-08T08:12:31.323Z,102371.34
2022-08-08T08:15:23.215Z,102398.38
2022-08-08T08:18:14.440Z,102403.56
2022-08-08T08:21:02.715Z,102404.25
2022-08-08T08:23:55.699Z,102391.91
2022-08-08T08:26:52.812Z,102389.13
2022-08-08T08:29:40.105Z,102385.13
2022-08-08T08:32:31.591Z,102406.09
2022-08-08T08:35:29.475Z,102407.25
2022-08-08T08:38:16.015Z,102408.16
2022-08-08T08:41:13.034Z,102404.25
2022-08-08T08:44:14.215Z,102408.28
2022-08-08T08:47:02.794Z,102400.47
2022-08-08T08:49:51.587Z,102387.56
2022-08-08T08:52:57.472Z,102401.31
2022-08-08T08:55:49.453Z,102402.94
2022-08-08T08:58:39.729Z,102397.63
2022-08-08T09:01:32.002Z,102396.09
2022-08-08T09:04:32.176Z,102380.19
2022-08-08T09:07:39.315Z,102396.34
2022-08-08T09:10:33.222Z,102390.34
2022-08-08T09:13:25.149Z,102379.38
2022-08-08T09:16:13.682Z,102389.94
2022-08-08T09:18:59.261Z,102387.94
2022-08-08T09:22:02.278Z,102381.94
2022-08-08T09:24:52.063Z,102388.66
2022-08-08T09:27:56.337Z,102385.28
2022-08-08T09:30:43.880Z,102396.78
2022-08-08T09:34:15.823Z,102382.63
2022-08-08T09:36:40.309Z,102368.25
2022-08-08T09:39:59.690Z,102364.13
2022-08-08T09:42:56.081Z,102380.66
2022-08-08T09:46:02.739Z,102370.38
2022-08-08T09:48:49.943Z,102370.75
2022-08-08T09:51:41.411Z,102369.44
2022-08-08T09:54:46.376Z,102371.53
2022-08-08T09:57:45.985Z,102356.41
2022-08-08T10:00:49.750Z,102360.91
2022-08-08T10:03:40.570Z,102361.47
2022-08-08T10:06:29.536Z,102370.25
2022-08-08T10:09:15.228Z,102361.13
2022-08-08T10:12:26.934Z,102354.28
2022-08-08T10:15:17.915Z,102350.25
2022-08-08T10:18:10.220Z,102346.59
2022-08-08T10:21:24.905Z,102322.44
2022-08-08T10:24:28.786Z,102355.63
2022-08-08T10:27:16.144Z,102363.16
2022-08-08T10:30:03.933Z,102359.56
2022-08-08T10:33:00.217Z,102358.91
2022-08-08T10:36:07.971Z,102351.78
2022-08-08T10:39:05.043Z,102343.25
2022-08-08T10:42:15.118Z,102346.47
2022-08-08T10:45:07.970Z,102350.31
2022-08-08T10:47:59.542Z,102336.78
2022-08-08T10:50:45.056Z,102344.47
2022-08-08T10:53:56.269Z,102340.59
2022-08-08T10:56:43.010Z,102340.78
2022-08-08T10:59:30.933Z,102332.81
2022-08-08T11:02:25.368Z,102330.13
2022-08-08T11:05:15.099Z,102333.38
2022-08-08T11:08:37.345Z,102344.13
2022-08-08T11:11:32.608Z,102333.66
2022-08-08T11:14:16.148Z,102310.19
2022-08-08T11:17:03.863Z,102319.97
2022-08-08T11:19:52.760Z,102334.81
2022-08-08T11:22:38.898Z,102325.81
2022-08-08T11:25:52.751Z,102341.66
2022-08-08T11:28:38.678Z,102334.34
2022-08-08T11:31:27.398Z,102330.81
2022-08-08T11:34:23.578Z,102323.47
2022-08-08T11:37:15.603Z,102328.28
2022-08-08T11:40:02.401Z,102342.28
2022-08-08T11:42:50.958Z,102321.91
2022-08-08T11:45:59.936Z,102332.91
2022-08-08T11:48:44.833Z,102334.56
2022-08-08T11:51:40.238Z,102324.44
2022-08-08T11:54:34.144Z,102319.06
2022-08-08T11:57:34.828Z,102315.03
2022-08-08T12:00:20.785Z,102320.53
2022-08-08T12:03:23.325Z,102316.56
2022-08-08T12:06:14.200Z,102290.72
2022-08-08T12:09:17.209Z,102311.44
2022-08-08T12:12:04.635Z,102296.09
2022-08-08T12:15:00.953Z,102306.09
2022-08-08T12:17:50.907Z,102302.91
2022-08-08T12:20:40.663Z,102305.78
2022-08-08T12:23:43.948Z,102313.72
2022-08-08T12:26:37.633Z,102302.56
2022-08-08T12:29:40.172Z,102281.84
2022-08-08T12:32:26.815Z,102293.56
2022-08-08T12:35:23.634Z,102292.19
2022-08-08T12:38:09.201Z,102295.44
2022-08-08T12:41:24.444Z,102298.47
2022-08-08T12:44:32.564Z,102303.09
2022-08-08T12:47:57.939Z,102296.47
2022-08-08T12:50:47.192Z,102292.81
2022-08-08T12:53:42.332Z,102287.16
2022-08-08T12:56:37.398Z,102281.59
2022-08-08T12:59:27.357Z,102285.19
2022-08-08T13:02:28.063Z,102277.34
2022-08-08T13:05:26.901Z,102294.94
2022-08-08T13:08:53.493Z,102292.47
2022-08-08T13:12:24.568Z,102270.94
2022-08-08T13:14:53.478Z,102291.09
2022-08-08T13:18:09.441Z,102280.75
2022-08-08T13:20:46.108Z,102290.59
2022-08-08T13:23:36.891Z,102298.78
2022-08-08T13:26:34.523Z,102284.44
2022-08-08T13:29:19.456Z,102287.59
2022-08-08T13:32:06.855Z,102279.38
2022-08-08T13:34:59.378Z,102290.78
2022-08-08T13:38:04.837Z,102289.22
2022-08-08T13:40:51.637Z,102287.03
2022-08-08T13:43:37.821Z,102292.81
2022-08-08T13:46:26.459Z,102284.22
2022-08-08T13:50:36.436Z,102280.34
2022-08-08T13:52:38.011Z,102282.00
2022-08-08T13:55:29.487Z,102284.84
2022-08-08T13:58:21.801Z,102282.13
2022-08-08T14:01:18.207Z,102271.44
2022-08-08T14:04:03.361Z,102259.06
2022-08-08T14:06:49.661Z,102279.66
2022-08-08T14:10:02.555Z,102273.97
2022-08-08T14:12:46.796Z,102265.16
2022-08-08T14:15:39.611Z,102276.72
2022-08-08T14:18:36.001Z,102268.19
2022-08-08T14:21:52.017Z,102263.66
2022-08-08T14:24:39.383Z,102261.38
2022-08-08T14:27:33.292Z,102261.19
2022-08-08T14:30:19.012Z,102264.31
2022-08-08T14:33:12.737Z,102264.56
2022-08-08T14:36:05.899Z,102269.13
2022-08-08T14:38:58.698Z,102263.50
2022-08-08T14:41:54.557Z,102263.47
2022-08-08T14:44:39.916Z,102258.13
2022-08-08T14:47:25.526Z,102253.25
2022-08-08T14:50:22.567Z,102262.28
2022-08-08T14:53:23.670Z,102264.97
2022-08-08T14:56:11.331Z,102264.53
2022-08-08T14:58:57.343Z,102255.34
2022-08-08T15:01:49.803Z,102266.63
2022-08-08T15:04:36.502Z,102239.75
2022-08-08T15:07:36.939Z,102267.28
2022-08-08T15:10:25.110Z,102263.00
2022-08-08T15:13:13.936Z,102261.34
2022-08-08T15:16:02.721Z,102250.75
2022-08-08T15:18:51.416Z,102256.03
2022-08-08T15:21:42.441Z,102265.72
2022-08-08T15:24:31.101Z,102257.19
2022-08-08T15:28:03.672Z,102264.56
2022-08-08T15:30:23.103Z,102268.28
2022-08-08T15:33:08.294Z,102270.69
2022-08-08T15:35:54.026Z,102245.06
2022-08-08T15:38:40.656Z,102265.88
2022-08-08T15:41:43.856Z,102272.81
2022-08-08T15:44:30.946Z,102262.44
2022-08-08T15:47:19.176Z,102261.25
2022-08-08T15:50:08.976Z,102256.72
2022-08-08T15:53:04.938Z,102253.41
2022-08-08T15:55:52.721Z,102251.66
2022-08-08T15:58:37.533Z,102265.28
2022-08-08T16:01:40.746Z,102252.47
2022-08-08T16:04:37.374Z,102258.59
2022-08-08T16:07:24.344Z,102262.88
2022-08-08T16:13:13.953Z,102257.78
2022-08-08T16:13:45.965Z,102240.03
2022-08-08T16:16:31.801Z,102257.41
2022-08-08T16:19:23.332Z,102253.91
2022-08-08T16:22:09.105Z,102254.66
2022-08-08T16:25:14.716Z,102256.66
2022-08-08T16:28:00.617Z,102253.00
2022-08-08T16:30:46.456Z,102252.09
2022-08-08T16:33:38.437Z,102261.66
2022-08-08T16:36:33.107Z,102258.91
2022-08-08T16:39:28.194Z,102255.09
2022-08-08T16:42:25.820Z,102261.84
2022-08-08T16:46:37.262Z,102242.09
2022-08-08T16:48:16.494Z,102264.44
2022-08-08T16:51:03.781Z,102259.59
2022-08-08T16:55:18.135Z,102268.00
2022-08-08T16:57:03.883Z,102261.16
2022-08-08T17:00:08.487Z,102246.25
2022-08-08T17:02:53.923Z,102271.59
2022-08-08T17:05:44.601Z,102268.94
2022-08-08T17:08:30.892Z,102272.81
2022-08-08T17:11:16.321Z,102270.78
2022-08-08T17:14:03.139Z,102259.72
2022-08-08T17:16:57.517Z,102250.84
2022-08-08T17:19:45.777Z,102260.06
2022-08-08T17:22:39.289Z,102271.97
2022-08-08T17:25:28.376Z,102277.81
2022-08-08T17:28:34.618Z,102280.66
2022-08-08T17:31:44.894Z,102281.13
2022-08-08T17:34:53.982Z,102289.16
2022-08-08T17:37:32.638Z,102293.47
2022-08-08T17:40:18.460Z,102280.16
2022-08-08T17:43:04.172Z,102298.09
2022-08-08T17:45:50.667Z,102301.25
2022-08-08T17:48:35.891Z,102306.44
2022-08-08T17:51:25.562Z,102306.06
2022-08-08T17:54:22.258Z,102289.88
2022-08-08T17:57:11.883Z,102310.16
2022-08-08T18:00:01.737Z,102308.59
2022-08-08T18:02:52.519Z,102319.09
2022-08-08T18:05:52.375Z,102313.13
2022-08-08T18:08:41.958Z,102319.38
2022-08-08T18:11:29.608Z,102302.13
2022-08-08T18:14:18.864Z,102327.28
2022-08-08T18:17:17.175Z,102335.13
2022-08-08T18:20:36.977Z,102328.41
2022-08-08T18:23:12.570Z,102338.06
2022-08-08T18:26:03.997Z,102331.63
2022-08-08T18:28:54.956Z,102326.50
2022-08-08T18:31:40.458Z,102357.59
2022-08-08T18:34:27.822Z,102334.38
2022-08-08T18:37:17.761Z,102340.25
2022-08-08T18:40:18.480Z,102351.56
2022-08-08T18:43:19.938Z,102360.84
2022-08-08T18:46:55.862Z,102352.78
2022-08-08T18:49:11.233Z,102363.91
2022-08-08T18:51:56.436Z,102373.78
2022-08-08T18:54:41.546Z,102359.66
2022-08-08T18:57:31.813Z,102375.97
2022-08-08T19:00:21.681Z,102386.41
2022-08-08T19:03:08.530Z,102397.38
2022-08-08T19:05:53.510Z,102391.50
2022-08-08T19:08:39.784Z,102400.47
2022-08-08T19:11:25.787Z,102404.97
2022-08-08T19:14:12.659Z,102408.75
2022-08-08T19:16:57.826Z,102421.56
2022-08-08T19:19:43.875Z,102415.78
2022-08-08T19:22:29.252Z,102416.19
2022-08-08T19:25:29.983Z,102413.38
2022-08-08T19:28:23.004Z,102417.59
2022-08-08T19:31:09.277Z,102420.13
2022-08-08T19:34:29.496Z,102416.28
2022-08-08T19:37:00.096Z,102418.38
2022-08-08T19:39:46.137Z,102425.81
2022-08-08T19:42:35.963Z,102429.81
2022-08-08T19:45:58.565Z,102437.41
2022-08-08T19:48:29.381Z,102426.97
2022-08-08T19:51:16.705Z,102429.91
2022-08-08T19:54:19.336Z,102434.38
2022-08-08T19:57:07.832Z,102407.78
2022-08-08T19:59:53.121Z,102447.06
2022-08-08T20:02:38.957Z,102438.91
2022-08-08T20:06:15.099Z,102455.88
2022-08-08T20:08:32.069Z,102452.03
2022-08-08T20:11:26.182Z,102456.53
2022-08-08T20:14:34.566Z,102450.56
2022-08-08T20:17:26.927Z,102459.16
2022-08-08T20:20:19.657Z,102447.13
2022-08-08T20:23:12.510Z,102471.31
2022-08-08T20:26:01.585Z,102481.88
2022-08-08T20:28:47.613Z,102473.53
2022-08-08T20:32:02.874Z,102465.53
2022-08-08T20:34:47.881Z,102473.06
2022-08-08T20:37:52.898Z,102468.69
2022-08-08T20:40:40.937Z,102475.28
2022-08-08T20:43:43.971Z,102480.41
2022-08-08T20:46:32.350Z,102475.69
2022-08-08T20:49:17.464Z,102480.56
2022-08-08T20:52:02.951Z,102479.00
2022-08-08T20:54:49.155Z,102458.84
2022-08-08T20:57:34.927Z,102483.13
2022-08-08T21:00:29.433Z,102482.22
2022-08-08T21:03:17.076Z,102469.38
2022-08-08T21:06:02.640Z,102485.97
2022-08-08T21:08:52.096Z,102478.22
2022-08-08T21:11:51.956Z,102486.84
2022-08-08T21:14:38.827Z,102490.44
2022-08-08T21:17:24.495Z,102487.72
2022-08-08T21:20:10.380Z,102489.28
2022-08-08T21:22:55.516Z,102484.06
2022-08-08T21:25:40.694Z,102481.91
2022-08-08T21:28:35.776Z,102465.56
2022-08-08T21:31:23.658Z,102491.19
2022-08-08T21:34:09.209Z,102493.22
2022-08-08T21:37:11.307Z,102485.16
2022-08-08T21:40:01.642Z,102486.09
2022-08-08T21:42:50.329Z,102482.25
2022-08-08T21:48:00.423Z,102484.91
2022-08-08T21:48:44.827Z,102486.59
2022-08-08T21:54:32.949Z,102467.75
2022-08-08T21:55:02.621Z,102494.34
2022-08-08T21:58:03.942Z,102496.50
2022-08-08T22:00:54.930Z,102487.56
2022-08-08T22:03:40.998Z,102492.38
2022-08-08T22:06:31.090Z,102497.34
2022-08-08T22:09:17.381Z,102491.16
2022-08-08T22:12:09.601Z,102489.81
2022-08-08T22:14:54.973Z,102488.25
2022-08-08T22:17:45.622Z,102488.38
2022-08-08T22:20:31.350Z,102495.03
2022-08-08T22:26:27.036Z,102489.69
2022-08-08T22:29:57.256Z,102484.78
2022-08-08T22:32:12.577Z,102492.03
2022-08-08T22:34:57.851Z,102492.75
2022-08-08T22:37:53.419Z,102489.00
2022-08-08T22:40:40.606Z,102476.03
2022-08-08T22:43:26.941Z,102488.13
2022-08-08T22:46:17.310Z,102496.09
2022-08-08T22:49:02.569Z,102500.66
2022-08-08T22:51:48.025Z,102501.34
2022-08-08T22:54:56.093Z,102481.78
2022-08-08T22:57:43.880Z,102508.69
2022-08-08T23:00:34.922Z,102506.25
2022-08-08T23:03:20.699Z,102504.91
2022-08-08T23:06:06.309Z,102509.03
2022-08-08T23:08:55.508Z,102503.34
2022-08-08T23:12:17.587Z,102505.19
2022-08-08T23:14:56.081Z,102501.50
2022-08-08T23:17:46.555Z,102505.00
2022-08-08T23:20:44.138Z,102505.41
2022-08-08T23:23:29.605Z,102510.81
2022-08-08T23:26:16.776Z,102515.41
2022-08-08T23:29:02.496Z,102517.66
2022-08-08T23:31:47.753Z,102508.34
2022-08-08T23:34:36.596Z,102516.63
2022-08-08T23:37:24.546Z,102523.63
2022-08-08T23:40:10.558Z,102519.63
2022-08-08T23:42:56.039Z,102517.75
2022-08-08T23:49:03.601Z,102519.44
2022-08-08T23:49:05.195Z,102510.41
2022-08-08T23:52:06.326Z,102529.06
2022-08-08T23:55:07.697Z,102532.91
2022-08-08T23:58:01.595Z,102524.00
